Ryoho Maru No.2 — JD2964 — position and weather

sailwx.info

Track history (hours):
 
Tides and Currents Weather Stations Pressure Air Temp Water Temp Dewpoint Dewpoint Depression Visibility Wind Speed Wind Dir Waves Ship Positions

Ryoho Maru No.2

Last reported at 2015-May-24 14:32 UTC. Time now 2015-May-24 15:25 UTC.
Position N 35°30' E 139°49'.

Length 57 m; draft 4 m.

Type: Tanker. MMSI: 431001062.

Date/timePositionNaut miles runAvg speedWind from/ knotsBaromVisibWave heightAir tempDewpointWater temp
2015-May-24 14:32N 35°30' E 139°49'0 0.0
2015-May-24 13:32N 35°30' E 139°49'0 0.0
2015-May-24 12:26N 35°30' E 139°49'0 0.0
2015-May-24 11:32N 35°30' E 139°49'0 0.0
2015-May-24 10:32N 35°30' E 139°49'0 0.0
2015-May-24 09:32N 35°30' E 139°49'0 0.0
2015-May-24 08:32N 35°30' E 139°49'0 0.0
2015-May-24 07:29N 35°30' E 139°49'0 0.0
2015-May-24 06:32N 35°30' E 139°49'0 0.0
2015-May-24 05:32N 35°30' E 139°49'0 0.0
2015-May-24 04:32N 35°30' E 139°49'0 0.0
2015-May-24 03:32N 35°30' E 139°49'0 0.0
2015-May-24 02:32N 35°30' E 139°49'0 0.0
2015-May-24 01:32N 35°30' E 139°49'0 0.0
2015-May-24 00:29N 35°30' E 139°49'0 0.0
2015-May-23 23:32N 35°30' E 139°49'0 0.0
2015-May-23 22:32N 35°30' E 139°49'0 0.0
2015-May-23 21:32N 35°30' E 139°49'0 0.0
2015-May-23 20:32N 35°30' E 139°49'0 0.0
2015-May-23 19:29N 35°30' E 139°49'0 0.0
2015-May-23 18:29N 35°30' E 139°49'0 0.0
2015-May-23 17:23N 35°30' E 139°49'0 0.0
2015-May-23 16:32N 35°30' E 139°49'0 0.0
2015-May-23 15:32N 35°30' E 139°49'0 0.0
2015-May-23 14:32N 35°30' E 139°49'0 0.0
2015-May-23 13:32N 35°30' E 139°49'0 0.0
2015-May-23 12:32N 35°30' E 139°49'0 0.0
2015-May-23 11:32N 35°30' E 139°49'0 0.0
2015-May-23 10:26N 35°30' E 139°49'0 0.0
2015-May-23 09:32N 35°30' E 139°49'0 0.0
2015-May-23 08:32N 35°30' E 139°49'0 0.0
2015-May-23 07:32N 35°30' E 139°49'0 0.0
2015-May-23 06:32N 35°30' E 139°49'0 0.0
2015-May-23 05:32N 35°30' E 139°49'0 0.0
2015-May-23 04:32N 35°30' E 139°49'0 0.0
2015-May-23 03:32N 35°30' E 139°49'0 0.0
2015-May-23 02:32N 35°30' E 139°49'0 0.0
2015-May-23 01:32N 35°30' E 139°49'1 0.8
2015-May-23 00:33N 35°29' E 139°49'1010.0
2015-May-22 23:34N 35°20' E 139°44'10 9.5
2015-May-22 22:33N 35°11' E 139°47'22 9.7
2015-May-22 20:17N 34°55' E 139°28'  
2015-May-17 20:33N 34°51' E 139°44'1110.2
2015-May-17 19:30N 34°53' E 139°57'910.0
2015-May-17 18:33N 34°58' E 140°06'1010.0
2015-May-17 17:33N 35°04' E 140°16'14 9.4
2015-May-17 16:07N 35°13' E 140°28'6 9.7
2015-May-17 15:31N 35°18' E 140°32'1010.0
2015-May-17 14:29N 35°26' E 140°40'10 9.8
2015-May-17 13:30N 35°33' E 140°48'11 9.8
2015-May-17 12:23N 35°43' E 140°55'1210.1
2015-May-17 11:12N 35°54' E 140°58'710.3
2015-May-17 10:33N 36°01' E 140°59'  
Track history (hours):
 
Tides and Currents Weather Stations Pressure Air Temp Water Temp Dewpoint Dewpoint Depression Visibility Wind Speed Wind Dir Waves Ship Positions

Ryoho Maru No.2

Last reported at 2015-May-24 14:32 UTC. Time now 2015-May-24 15:25 UTC.
Position N 35°30' E 139°49'.

Length 57 m; draft 4 m.

Type: Tanker. MMSI: 431001062.

Date/timePositionNaut miles runAvg speedWind from/ knotsBaromVisibWave heightAir tempDewpointWater temp
2015-May-24 14:32N 35°30' E 139°49'0 0.0
2015-May-24 13:32N 35°30' E 139°49'0 0.0
2015-May-24 12:26N 35°30' E 139°49'0 0.0
2015-May-24 11:32N 35°30' E 139°49'0 0.0
2015-May-24 10:32N 35°30' E 139°49'0 0.0
2015-May-24 09:32N 35°30' E 139°49'0 0.0
2015-May-24 08:32N 35°30' E 139°49'0 0.0
2015-May-24 07:29N 35°30' E 139°49'0 0.0
2015-May-24 06:32N 35°30' E 139°49'0 0.0
2015-May-24 05:32N 35°30' E 139°49'0 0.0
2015-May-24 04:32N 35°30' E 139°49'0 0.0
2015-May-24 03:32N 35°30' E 139°49'0 0.0
2015-May-24 02:32N 35°30' E 139°49'0 0.0
2015-May-24 01:32N 35°30' E 139°49'0 0.0
2015-May-24 00:29N 35°30' E 139°49'0 0.0
2015-May-23 23:32N 35°30' E 139°49'0 0.0
2015-May-23 22:32N 35°30' E 139°49'0 0.0
2015-May-23 21:32N 35°30' E 139°49'0 0.0
2015-May-23 20:32N 35°30' E 139°49'0 0.0
2015-May-23 19:29N 35°30' E 139°49'0 0.0
2015-May-23 18:29N 35°30' E 139°49'0 0.0
2015-May-23 17:23N 35°30' E 139°49'0 0.0
2015-May-23 16:32N 35°30' E 139°49'0 0.0
2015-May-23 15:32N 35°30' E 139°49'0 0.0
2015-May-23 14:32N 35°30' E 139°49'0 0.0
2015-May-23 13:32N 35°30' E 139°49'0 0.0
2015-May-23 12:32N 35°30' E 139°49'0 0.0
2015-May-23 11:32N 35°30' E 139°49'0 0.0
2015-May-23 10:26N 35°30' E 139°49'0 0.0
2015-May-23 09:32N 35°30' E 139°49'0 0.0
2015-May-23 08:32N 35°30' E 139°49'0 0.0
2015-May-23 07:32N 35°30' E 139°49'0 0.0
2015-May-23 06:32N 35°30' E 139°49'0 0.0
2015-May-23 05:32N 35°30' E 139°49'0 0.0
2015-May-23 04:32N 35°30' E 139°49'0 0.0
2015-May-23 03:32N 35°30' E 139°49'0 0.0
2015-May-23 02:32N 35°30' E 139°49'0 0.0
2015-May-23 01:32N 35°30' E 139°49'1 0.8
2015-May-23 00:33N 35°29' E 139°49'1010.0
2015-May-22 23:34N 35°20' E 139°44'10 9.5
2015-May-22 22:33N 35°11' E 139°47'22 9.7
2015-May-22 20:17N 34°55' E 139°28'  
2015-May-17 20:33N 34°51' E 139°44'1110.2
2015-May-17 19:30N 34°53' E 139°57'910.0
2015-May-17 18:33N 34°58' E 140°06'1010.0
2015-May-17 17:33N 35°04' E 140°16'14 9.4
2015-May-17 16:07N 35°13' E 140°28'6 9.7
2015-May-17 15:31N 35°18' E 140°32'1010.0
2015-May-17 14:29N 35°26' E 140°40'10 9.8
2015-May-17 13:30N 35°33' E 140°48'11 9.8
2015-May-17 12:23N 35°43' E 140°55'1210.1
2015-May-17 11:12N 35°54' E 140°58'710.3
2015-May-17 10:33N 36°01' E 140°59'  

Dump ship's entire track history